Terminal Aerodrome Forecast
Issued by NWS

Home | Current Version | Previous Version | Text Only | Print | Product List | Glossary On
Versions: 1 2 3 4 5 6 7 8 9 10 11 12 13 14 15 16 17 18
000
FTUS46 KSGX 250543 AAA
TAFSNA
TAF AMD
KSNA 250543Z 2506/2606 VRB04KT P6SM FEW009 SCT200
      TEMPO 2506/2508 6SM BR BKN009
     FM250800 VRB04KT 5SM BR BKN008
     FM251500 VRB04KT P6SM SCT010 SCT200
     FM251900 21011KT P6SM SCT200
     FM260200 VRB04KT P6SM SCT200=

USA.gov is the U.S. government's official web portal to all federal, state and local government web resources and services.